Time;durP1;ratioP1;P1;durP2;ratioP2;P2;SDS_P1;SDS_P2;PMS_P1;PMS_P2;Temp;Humidity;BMP_temperature;BMP_pressure;BME280_temperature;BME280_humidity;BME280_pressure;Samples;Min_cycle;Max_cycle;Signal;HPM_P1;HPM_P2
2021/06/15 00:02:15;;;;;;;6.65;1.10;;;;;;;7.06;100.00;100595.66;5075337;28;20051;-47
2021/06/15 00:05:18;;;;;;;3.53;0.70;;;;;;;7.00;100.00;100592.63;5075850;28;20043;-47
2021/06/15 00:08:22;;;;;;;1.23;1.05;;;;;;;6.97;100.00;100576.09;5075394;28;20063;-47
2021/06/15 00:11:25;;;;;;;1.00;1.00;;;;;;;6.85;100.00;100585.88;5075071;28;20039;-47
2021/06/15 00:14:29;;;;;;;3.50;1.25;;;;;;;6.81;100.00;100585.97;5074847;28;20064;-47
2021/06/15 00:17:32;;;;;;;2.10;1.00;;;;;;;6.77;100.00;100585.28;5074312;28;20047;-47
2021/06/15 00:20:36;;;;;;;1.10;1.10;;;;;;;6.76;100.00;100596.75;5074784;28;20071;-47
2021/06/15 00:23:39;;;;;;;10.98;2.03;;;;;;;6.70;100.00;100588.19;5074701;28;20366;-47
2021/06/15 00:26:42;;;;;;;0.80;0.80;;;;;;;6.65;100.00;100585.16;5073904;28;20043;-47
2021/06/15 00:29:45;;;;;;;1.88;0.95;;;;;;;6.64;100.00;100597.44;5074659;28;20051;-47
2021/06/15 00:32:50;;;;;;;6.72;1.20;;;;;;;6.63;100.00;100591.13;5074740;28;20059;-47
2021/06/15 00:35:54;;;;;;;2.42;1.58;;;;;;;6.64;100.00;100594.69;5074649;28;20524;-47
2021/06/15 00:38:57;;;;;;;1.00;0.73;;;;;;;6.54;100.00;100595.72;5074613;28;20429;-47
2021/06/15 00:42:00;;;;;;;1.40;1.13;;;;;;;6.47;100.00;100598.63;5074784;28;20396;-47
2021/06/15 00:45:09;;;;;;;1.17;1.05;;;;;;;6.39;100.00;100597.25;5074685;28;20047;-47
2021/06/15 00:48:28;;;;;;;0.77;0.77;;;;;;;6.30;100.00;100599.81;5073981;28;20063;-47
2021/06/15 00:51:32;;;;;;;1.23;1.20;;;;;;;6.23;100.00;100591.66;5074681;28;20052;-47
2021/06/15 00:54:35;;;;;;;2.28;1.05;;;;;;;6.20;100.00;100606.31;5073859;28;20068;-47
2021/06/15 00:57:39;;;;;;;1.33;1.30;;;;;;;6.18;100.00;100603.22;5074118;28;20523;-47
2021/06/15 01:00:42;;;;;;;4.80;1.48;;;;;;;6.19;100.00;100605.56;5073817;28;20040;-47
2021/06/15 01:03:47;;;;;;;5.70;1.20;;;;;;;6.13;100.00;100613.56;5073760;28;20416;-47
2021/06/15 01:07:13;;;;;;;3.50;1.25;;;;;;;6.10;100.00;100617.22;5073815;28;20047;-47
2021/06/15 01:10:42;;;;;;;0.98;0.98;;;;;;;6.05;100.00;100611.38;5074218;28;20052;-47
2021/06/15 01:14:11;;;;;;;2.40;1.20;;;;;;;6.00;100.00;100612.66;5074048;28;20393;-47
2021/06/15 01:17:23;;;;;;;1.17;1.10;;;;;;;5.97;100.00;100610.75;5073919;28;20059;-47
2021/06/15 01:20:30;;;;;;;1.75;1.65;;;;;;;5.95;100.00;100609.63;5073829;28;20054;-47
2021/06/15 01:23:49;;;;;;;11.05;2.03;;;;;;;5.95;100.00;100606.84;5073688;28;20040;-46
2021/06/15 01:27:26;;;;;;;7.57;1.95;;;;;;;5.97;100.00;100616.28;5073761;28;20072;-47
2021/06/15 01:30:36;;;;;;;1.30;1.13;;;;;;;5.91;100.00;100609.69;5073916;28;20051;-47
2021/06/15 01:33:44;;;;;;;1.67;1.58;;;;;;;5.84;100.00;100609.84;5073371;28;20043;-47
2021/06/15 01:37:14;;;;;;;3.60;1.92;;;;;;;5.79;100.00;100604.75;5073279;28;20495;-47
2021/06/15 01:40:23;;;;;;;3.60;1.25;;;;;;;5.77;100.00;100612.72;5073494;28;20071;-47
2021/06/15 01:43:56;;;;;;;1.48;1.45;;;;;;;5.73;100.00;100597.41;5073298;28;20048;-47
2021/06/15 01:47:03;;;;;;;1.40;1.40;;;;;;;5.73;100.00;100589.88;5073385;28;20492;-57
2021/06/15 01:50:09;;;;;;;1.17;1.17;;;;;;;5.74;100.00;100585.91;5073236;28;20043;-57
2021/06/15 01:53:17;;;;;;;5.60;1.00;;;;;;;5.76;100.00;100594.56;5073213;28;20051;-57
2021/06/15 01:56:21;;;;;;;0.95;0.95;;;;;;;5.81;100.00;100588.53;5072890;28;20055;-57
2021/06/15 01:59:26;;;;;;;0.77;0.55;;;;;;;5.78;100.00;100586.63;5073173;28;20047;-57
2021/06/15 02:02:30;;;;;;;0.77;0.75;;;;;;;5.78;100.00;100592.13;5072957;28;20043;-57
2021/06/15 02:05:39;;;;;;;0.63;0.63;;;;;;;5.80;100.00;100600.81;5072823;28;20099;-56
2021/06/15 02:08:49;;;;;;;0.88;0.88;;;;;;;5.87;100.00;100599.91;5072480;28;20504;-57
2021/06/15 02:11:52;;;;;;;5.57;1.65;;;;;;;5.85;100.00;100597.56;5072842;28;20456;-55
2021/06/15 02:14:58;;;;;;;3.47;0.85;;;;;;;5.78;100.00;100596.91;5072338;28;20047;-57
2021/06/15 02:18:03;;;;;;;0.80;0.80;;;;;;;5.73;100.00;100603.72;5072579;28;20052;-57
2021/06/15 02:21:10;;;;;;;2.25;0.93;;;;;;;5.69;100.00;100599.44;5072771;28;20048;-57
2021/06/15 02:24:14;;;;;;;1.75;0.90;;;;;;;5.66;100.00;100598.31;5072857;28;20059;-57
2021/06/15 02:27:20;;;;;;;1.95;1.10;;;;;;;5.65;100.00;100593.97;5071805;28;20539;-56
2021/06/15 02:30:24;;;;;;;2.35;1.17;;;;;;;5.62;100.00;100588.53;5072525;28;20043;-57
2021/06/15 02:33:32;;;;;;;1.20;1.10;;;;;;;5.55;100.00;100589.44;5072299;28;20051;-57
2021/06/15 02:36:38;;;;;;;1.52;1.42;;;;;;;5.53;100.00;100580.81;5072140;28;20428;-56
2021/06/15 02:39:41;;;;;;;1.95;1.63;;;;;;;5.54;100.00;100576.84;5072301;28;20515;-55
2021/06/15 02:42:46;;;;;;;1.25;1.25;;;;;;;5.57;100.00;100584.28;5072128;28;20064;-57
2021/06/15 02:45:53;;;;;;;1.17;1.15;;;;;;;5.62;100.00;100581.03;5072351;28;20094;-57
2021/06/15 02:48:59;;;;;;;1.05;1.05;;;;;;;5.67;100.00;100579.75;5071610;28;20103;-56
2021/06/15 02:52:11;;;;;;;1.05;1.05;;;;;;;5.67;100.00;100577.00;5072332;28;20051;-57
2021/06/15 02:55:31;;;;;;;10.10;1.95;;;;;;;5.59;100.00;100572.81;5071957;28;20055;-56
2021/06/15 02:58:35;;;;;;;1.02;0.90;;;;;;;5.51;100.00;100569.41;5071827;28;20040;-57
2021/06/15 03:01:38;;;;;;;2.97;1.35;;;;;;;5.47;100.00;100590.78;5071899;28;20508;-55
2021/06/15 03:04:46;;;;;;;2.38;1.20;;;;;;;5.45;100.00;100579.38;5071456;28;20048;-57
2021/06/15 03:07:50;;;;;;;2.72;1.90;;;;;;;5.43;100.00;100581.00;5071647;28;20067;-57
2021/06/15 03:10:53;;;;;;;5.05;1.85;;;;;;;5.41;100.00;100578.66;5072049;28;20052;-56
2021/06/15 03:14:05;;;;;;;3.00;0.90;;;;;;;5.39;100.00;100575.56;5071897;28;20056;-56
2021/06/15 03:17:10;;;;;;;1.25;1.10;;;;;;;5.40;100.00;100577.09;5072207;28;20052;-57
2021/06/15 03:20:15;;;;;;;0.73;0.73;;;;;;;5.42;100.00;100576.66;5070980;28;20110;-55
2021/06/15 03:23:29;;;;;;;1.15;1.08;;;;;;;5.39;100.00;100570.78;5071916;28;20059;-57
2021/06/15 03:26:38;;;;;;;1.15;1.15;;;;;;;5.35;100.00;100575.59;5071781;28;20401;-56
2021/06/15 03:29:43;;;;;;;4.38;1.33;;;;;;;5.28;100.00;100572.19;5071621;28;20047;-56
2021/06/15 03:32:52;;;;;;;2.05;0.90;;;;;;;5.27;100.00;100573.41;5072140;28;20064;-57
2021/06/15 03:35:58;;;;;;;4.78;1.10;;;;;;;5.29;100.00;100568.22;5071642;28;20389;-57
2021/06/15 03:39:02;;;;;;;1.33;1.23;;;;;;;5.35;100.00;100569.28;5071716;28;20047;-56
2021/06/15 03:42:08;;;;;;;0.65;0.65;;;;;;;5.49;100.00;100558.00;5071841;28;20044;-56
2021/06/15 03:45:13;;;;;;;2.22;0.77;;;;;;;5.51;100.00;100571.38;5070940;28;20060;-55
2021/06/15 03:48:19;;;;;;;2.67;1.50;;;;;;;5.59;100.00;100576.34;5071549;28;20052;-56
2021/06/15 03:51:26;;;;;;;0.68;0.68;;;;;;;5.56;100.00;100579.97;5071594;28;20048;-57
2021/06/15 03:54:32;;;;;;;0.93;0.90;;;;;;;5.49;100.00;100571.81;5071285;28;20047;-55
2021/06/15 03:57:43;;;;;;;8.77;1.30;;;;;;;5.48;100.00;100578.53;5071333;28;20508;-56
2021/06/15 04:00:48;;;;;;;1.52;1.20;;;;;;;5.44;100.00;100588.06;5073550;28;20055;-57
2021/06/15 04:03:52;;;;;;;8.52;1.63;;;;;;;5.43;100.00;100592.84;5075115;28;20047;-55
2021/06/15 04:06:57;;;;;;;1.75;1.42;;;;;;;5.44;100.00;100594.38;5075134;28;20110;-57
2021/06/15 04:10:03;;;;;;;5.32;1.25;;;;;;;5.48;100.00;100594.34;5075059;28;20067;-55
2021/06/15 04:13:08;;;;;;;1.23;0.75;;;;;;;5.58;100.00;100598.88;5075386;28;20063;-57
2021/06/15 04:16:14;;;;;;;1.17;1.15;;;;;;;5.65;100.00;100599.50;5075031;28;20048;-56
2021/06/15 04:19:24;;;;;;;0.80;0.80;;;;;;;5.66;100.00;100605.81;5074892;28;20044;-57
2021/06/15 04:22:31;;;;;;;1.13;1.13;;;;;;;5.70;100.00;100607.31;5074938;28;20047;-57
2021/06/15 04:25:41;;;;;;;5.85;1.25;;;;;;;5.75;100.00;100598.53;5074601;28;20036;-57
2021/06/15 04:28:45;;;;;;;1.90;1.35;;;;;;;5.89;100.00;100612.09;5074725;28;20047;-57
2021/06/15 04:31:52;;;;;;;2.28;1.05;;;;;;;6.03;100.00;100614.59;5074535;28;20499;-57
2021/06/15 04:35:00;;;;;;;1.48;1.17;;;;;;;6.06;100.00;100610.94;5074220;28;20047;-55
2021/06/15 04:38:09;;;;;;;1.05;1.05;;;;;;;6.11;100.00;100610.47;5073500;28;20515;-57
2021/06/15 04:41:22;;;;;;;0.98;0.93;;;;;;;6.16;100.00;100605.63;5074678;28;20055;-54
2021/06/15 04:44:30;;;;;;;1.35;0.73;;;;;;;6.19;100.00;100607.56;5074324;28;20059;-57
2021/06/15 04:47:43;;;;;;;0.93;0.90;;;;;;;6.28;100.00;100618.81;5074418;28;20036;-56
2021/06/15 04:50:47;;;;;;;1.85;1.00;;;;;;;6.29;100.00;100612.84;5074662;28;20063;-57
2021/06/15 04:53:58;;;;;;;0.98;0.98;;;;;;;6.34;100.00;100606.03;5074414;28;20055;-57
2021/06/15 04:57:06;;;;;;;1.38;0.80;;;;;;;6.41;100.00;100614.19;5074223;28;20049;-56
2021/06/15 05:00:10;;;;;;;1.33;1.15;;;;;;;6.53;100.00;100607.97;5074512;28;20409;-56
2021/06/15 05:03:14;;;;;;;0.98;0.75;;;;;;;6.59;100.00;100611.78;5074105;28;20067;-57
2021/06/15 05:06:19;;;;;;;0.52;0.52;;;;;;;6.64;100.00;100619.59;5073997;28;20044;-57
2021/06/15 05:09:28;;;;;;;7.85;1.10;;;;;;;6.70;100.00;100626.94;5074126;28;20111;-57
2021/06/15 05:12:34;;;;;;;7.97;1.38;;;;;;;6.77;100.00;100618.50;5073290;28;20056;-57
2021/06/15 05:15:43;;;;;;;1.55;0.70;;;;;;;6.85;100.00;100638.47;5073715;28;20048;-57
2021/06/15 05:18:46;;;;;;;1.15;0.50;;;;;;;7.04;100.00;100648.69;5073733;28;20098;-57
2021/06/15 05:22:07;;;;;;;3.53;1.17;;;;;;;7.21;100.00;100653.00;5073820;28;20052;-56
2021/06/15 05:25:11;;;;;;;1.52;0.90;;;;;;;7.34;100.00;100650.34;5073844;28;20047;-56
2021/06/15 05:28:16;;;;;;;1.13;1.13;;;;;;;7.50;100.00;100651.09;5074181;28;20051;-56
2021/06/15 05:31:19;;;;;;;2.45;1.25;;;;;;;7.68;100.00;100647.09;5073932;28;20048;-55
2021/06/15 05:34:23;;;;;;;1.98;1.77;;;;;;;7.79;100.00;100648.38;5073518;28;20051;-56
2021/06/15 05:37:27;;;;;;;1.08;0.98;;;;;;;7.95;100.00;100653.09;5073433;28;20048;-57
2021/06/15 05:40:30;;;;;;;1.30;1.23;;;;;;;8.02;100.00;100650.88;5073114;28;20432;-57
2021/06/15 05:43:34;;;;;;;5.45;0.98;;;;;;;8.10;100.00;100648.72;5072853;28;20055;-56
2021/06/15 05:46:37;;;;;;;2.30;1.83;;;;;;;8.23;100.00;100638.41;5073179;28;20381;-57
2021/06/15 05:49:41;;;;;;;4.20;0.68;;;;;;;8.34;100.00;100641.66;5073069;28;20052;-57
2021/06/15 05:52:45;;;;;;;0.85;0.85;;;;;;;8.41;100.00;100638.69;5073035;28;20055;-57
2021/06/15 05:55:49;;;;;;;0.82;0.60;;;;;;;8.45;100.00;100639.38;5072755;28;20110;-57
2021/06/15 05:58:53;;;;;;;1.00;0.90;;;;;;;8.44;100.00;100623.94;5072903;28;20047;-56
2021/06/15 06:01:56;;;;;;;7.47;1.48;;;;;;;8.38;100.00;100623.69;5072929;28;20047;-56
2021/06/15 06:08:09;;;;;;;2.42;0.80;;;;;;;8.44;100.00;100621.16;5073090;28;20043;-57
2021/06/15 06:11:13;;;;;;;2.40;0.60;;;;;;;8.56;100.00;100612.06;5072913;28;20071;-55
2021/06/15 06:14:17;;;;;;;2.63;0.60;;;;;;;8.64;100.00;100618.19;5072887;28;20397;-56
2021/06/15 06:17:20;;;;;;;4.07;0.90;;;;;;;8.69;100.00;100615.63;5072655;28;20064;-56
2021/06/15 06:20:24;;;;;;;3.33;1.02;;;;;;;8.74;100.00;100612.28;5072502;28;20401;-57
2021/06/15 06:23:28;;;;;;;1.23;0.68;;;;;;;8.79;100.00;100622.84;5071737;28;20047;-57
2021/06/15 06:26:32;;;;;;;9.90;2.00;;;;;;;8.88;100.00;100630.53;5071690;28;20059;-57
2021/06/15 06:29:35;;;;;;;3.33;2.05;;;;;;;8.98;100.00;100616.28;5072251;28;20067;-57
2021/06/15 06:32:39;;;;;;;17.75;1.85;;;;;;;9.10;100.00;100607.16;5072304;28;20047;-56
2021/06/15 06:35:42;;;;;;;4.53;0.73;;;;;;;9.23;100.00;100614.66;5072335;28;20064;-56
2021/06/15 06:38:49;;;;;;;3.33;0.80;;;;;;;9.35;100.00;100616.66;5072243;28;20396;-56
2021/06/15 06:41:52;;;;;;;0.77;0.73;;;;;;;9.52;100.00;100616.06;5072568;28;20055;-56
2021/06/15 06:44:56;;;;;;;0.70;0.50;;;;;;;9.67;100.00;100613.56;5072357;28;20055;-56
2021/06/15 06:47:59;;;;;;;1.77;1.20;;;;;;;9.79;100.00;100604.38;5071862;28;20047;-56
2021/06/15 06:51:03;;;;;;;14.82;0.88;;;;;;;9.92;100.00;100605.88;5072383;28;20052;-56
2021/06/15 06:54:06;;;;;;;5.10;0.88;;;;;;;10.08;100.00;100612.47;5072133;28;20046;-57
2021/06/15 06:57:10;;;;;;;8.77;1.15;;;;;;;10.27;100.00;100628.88;5071948;28;20060;-56
2021/06/15 07:00:14;;;;;;;7.68;1.20;;;;;;;10.50;100.00;100622.03;5072343;28;20064;-56
2021/06/15 07:03:18;;;;;;;2.40;0.75;;;;;;;10.76;100.00;100617.84;5072298;28;20423;-57
2021/06/15 07:06:21;;;;;;;2.50;0.85;;;;;;;11.06;100.00;100619.03;5071838;28;20036;-57
2021/06/15 07:09:24;;;;;;;5.18;1.15;;;;;;;11.22;100.00;100624.31;5071937;28;20044;-57
2021/06/15 07:12:28;;;;;;;1.23;0.40;;;;;;;11.33;100.00;100616.28;5072093;28;20400;-57
2021/06/15 07:15:31;;;;;;;2.95;1.23;;;;;;;11.45;100.00;100607.00;5071738;28;20055;-57
2021/06/15 07:18:38;;;;;;;6.75;1.05;;;;;;;11.62;100.00;100605.47;5071644;28;20048;-56
2021/06/15 07:21:41;;;;;;;1.67;0.82;;;;;;;11.88;100.00;100622.72;5072325;28;20047;-56
2021/06/15 07:24:45;;;;;;;1.27;0.68;;;;;;;12.10;100.00;100618.53;5071825;28;20048;-57
2021/06/15 07:27:48;;;;;;;7.70;0.65;;;;;;;12.32;100.00;100617.53;5072051;28;20067;-57
2021/06/15 07:30:52;;;;;;;3.45;0.88;;;;;;;12.55;100.00;100602.88;5072154;28;20067;-55
2021/06/15 07:33:56;;;;;;;2.85;1.33;;;;;;;12.72;100.00;100602.03;5070905;28;20052;-56
2021/06/15 07:37:00;;;;;;;2.03;0.63;;;;;;;12.93;100.00;100594.63;5075876;28;20060;-55
2021/06/15 07:40:05;;;;;;;8.25;0.80;;;;;;;13.18;100.00;100599.81;5075800;28;20511;-57
2021/06/15 07:43:09;;;;;;;0.43;0.43;;;;;;;13.60;100.00;100583.66;5075690;28;20059;-55
2021/06/15 07:46:15;;;;;;;0.57;0.57;;;;;;;13.77;100.00;100588.81;5075582;28;20044;-56
2021/06/15 07:49:18;;;;;;;2.53;0.77;;;;;;;13.89;100.00;100593.38;5075686;28;20044;-57
2021/06/15 07:52:27;;;;;;;0.20;0.20;;;;;;;14.04;100.00;100585.75;5075379;28;20051;-56
2021/06/15 07:55:31;;;;;;;0.40;0.38;;;;;;;14.17;100.00;100580.66;5075144;28;20055;-57
2021/06/15 07:58:35;;;;;;;0.40;0.35;;;;;;;14.38;100.00;100574.69;5075238;28;20052;-56
2021/06/15 08:01:38;;;;;;;0.22;0.22;;;;;;;14.60;100.00;100576.28;5075010;28;20044;-57
2021/06/15 08:04:42;;;;;;;2.17;0.73;;;;;;;14.73;100.00;100580.34;5075265;28;20051;-56
2021/06/15 08:07:51;;;;;;;5.10;0.40;;;;;;;14.81;100.00;100583.53;5075136;28;20055;-54
2021/06/15 08:10:55;;;;;;;7.50;0.47;;;;;;;15.04;100.00;100583.38;5075174;28;20048;-55
2021/06/15 08:13:59;;;;;;;0.73;0.10;;;;;;;15.07;100.00;100584.44;5075369;28;20063;-56
2021/06/15 08:17:03;;;;;;;0.35;0.10;;;;;;;15.29;100.00;100586.75;5075149;28;20051;-56
2021/06/15 08:20:07;;;;;;;0.70;0.45;;;;;;;15.33;100.00;100593.72;5075071;28;20523;-56
2021/06/15 08:23:12;;;;;;;0.95;0.65;;;;;;;15.47;100.00;100583.69;5074969;28;20043;-56
2021/06/15 08:26:15;;;;;;;5.22;1.00;;;;;;;15.73;100.00;100581.72;5074779;28;20146;-55
2021/06/15 08:29:19;;;;;;;1.88;0.40;;;;;;;15.71;100.00;100575.81;5074815;28;20393;-56
2021/06/15 08:32:22;;;;;;;3.40;0.65;;;;;;;15.89;100.00;100561.47;5074666;28;20054;-56
2021/06/15 08:35:27;;;;;;;3.28;0.85;;;;;;;16.08;100.00;100559.88;5074874;28;20384;-57
2021/06/15 08:38:30;;;;;;;7.22;0.85;;;;;;;16.36;100.00;100562.94;5073539;28;20051;-56
2021/06/15 08:41:35;;;;;;;0.47;0.28;;;;;;;16.45;100.00;100563.53;5074301;28;20519;-56
2021/06/15 08:44:40;;;;;;;1.85;0.30;;;;;;;16.29;100.00;100566.19;5074334;28;20047;-55
2021/06/15 08:47:50;;;;;;;5.00;0.30;;;;;;;16.67;100.00;100565.78;5073697;28;20039;-56
2021/06/15 08:50:53;;;;;;;3.75;0.30;;;;;;;16.85;100.00;100556.19;5074412;28;20404;-56
2021/06/15 08:54:03;;;;;;;1.63;0.50;;;;;;;17.00;100.00;100562.41;5074371;28;20051;-56
2021/06/15 08:57:06;;;;;;;0.30;0.20;;;;;;;17.06;100.00;100555.53;5074438;28;20043;-54
2021/06/15 09:00:11;;;;;;;1.05;0.35;;;;;;;17.28;100.00;100554.88;5074394;28;20397;-56
2021/06/15 09:03:15;;;;;;;3.30;0.65;;;;;;;17.58;100.00;100544.78;5074129;28;20111;-56
2021/06/15 09:06:20;;;;;;;3.92;1.00;;;;;;;17.90;100.00;100543.34;5074101;28;20056;-56
2021/06/15 09:09:44;;;;;;;4.75;0.43;;;;;;;18.04;100.00;100536.69;5073857;28;20048;-57
2021/06/15 09:12:47;;;;;;;3.17;0.40;;;;;;;18.30;100.00;100530.78;5073931;28;20086;-57
2021/06/15 09:15:51;;;;;;;1.05;0.45;;;;;;;18.63;100.00;100524.41;5074194;28;20047;-56
2021/06/15 09:18:58;;;;;;;1.67;0.45;;;;;;;18.76;100.00;100521.81;5073901;28;20060;-57
2021/06/15 09:22:02;;;;;;;4.45;0.40;;;;;;;18.94;100.00;100529.72;5073026;28;20048;-57
2021/06/15 09:25:10;;;;;;;1.48;0.47;;;;;;;18.86;100.00;100514.63;5073792;28;20090;-57
2021/06/15 09:28:17;;;;;;;1.00;0.38;;;;;;;18.70;100.00;100515.41;5073576;28;20051;-55
2021/06/15 09:31:21;;;;;;;0.68;0.35;;;;;;;18.45;100.00;100505.19;5073456;28;20047;-57
2021/06/15 09:34:24;;;;;;;6.63;0.40;;;;;;;18.71;100.00;100520.53;5073307;28;20055;-56
2021/06/15 09:37:29;;;;;;;0.68;0.30;;;;;;;18.95;100.00;100525.59;5073293;28;20043;-55
2021/06/15 09:40:34;;;;;;;0.55;0.10;;;;;;;19.10;100.00;100528.91;5073637;28;20067;-56
2021/06/15 09:43:38;;;;;;;1.48;0.20;;;;;;;19.29;100.00;100518.59;5073025;28;20063;-57
2021/06/15 09:46:47;;;;;;;3.15;0.30;;;;;;;19.47;100.00;100506.69;5073097;28;20044;-57
2021/06/15 09:49:51;;;;;;;0.57;0.10;;;;;;;19.53;100.00;100510.25;5073560;28;20047;-54
2021/06/15 09:52:54;;;;;;;0.73;0.45;;;;;;;19.79;100.00;100517.56;5073023;28;20055;-57
2021/06/15 09:56:13;;;;;;;1.45;0.65;;;;;;;19.84;100.00;100511.13;5072777;28;20408;-56
2021/06/15 09:59:16;;;;;;;3.03;0.38;;;;;;;19.74;100.00;100509.88;5072928;28;20425;-56
2021/06/15 10:02:19;;;;;;;0.43;0.30;;;;;;;19.37;100.00;100513.94;5073000;28;20500;-56
2021/06/15 10:05:35;;;;;;;0.65;0.60;;;;;;;18.92;100.00;100513.31;5072897;28;20389;-57
2021/06/15 10:08:44;;;;;;;2.50;0.82;;;;;;;18.69;100.00;100511.06;5072758;28;20056;-57
2021/06/15 10:11:48;;;;;;;3.53;0.98;;;;;;;18.41;100.00;100502.59;5072052;28;20055;-56
2021/06/15 10:14:54;;;;;;;0.52;0.10;;;;;;;18.07;100.00;100501.84;5072855;28;20055;-57
2021/06/15 10:17:58;;;;;;;0.75;0.20;;;;;;;18.04;100.00;100505.66;5072547;28;20515;-55
2021/06/15 10:21:02;;;;;;;3.92;0.70;;;;;;;17.89;100.00;100502.31;5072693;28;20051;-57
2021/06/15 10:24:07;;;;;;;0.22;0.13;;;;;;;17.60;100.00;100508.44;5072711;28;20047;-56
2021/06/15 10:27:12;;;;;;;3.88;0.45;;;;;;;17.35;100.00;100498.84;5072706;28;20417;-56
2021/06/15 10:30:18;;;;;;;5.03;0.85;;;;;;;17.35;100.00;100506.50;5072441;28;20043;-56
2021/06/15 10:33:23;;;;;;;0.63;0.25;;;;;;;17.85;100.00;100492.59;5072454;28;20043;-56
2021/06/15 10:36:47;;;;;;;3.53;0.30;;;;;;;18.44;100.00;100495.97;5072498;28;20039;-56
2021/06/15 10:39:51;;;;;;;3.17;0.50;;;;;;;19.04;100.00;100490.69;5072269;28;20079;-56
2021/06/15 10:43:26;;;;;;;3.67;0.50;;;;;;;19.22;100.00;100484.44;5072118;28;20051;-55
2021/06/15 10:46:37;;;;;;;2.63;0.13;;;;;;;19.30;100.00;100482.63;5072339;28;20043;-56
2021/06/15 10:50:00;;;;;;;4.35;0.60;;;;;;;19.32;100.00;100468.72;5072371;28;20044;-55
2021/06/15 10:53:06;;;;;;;5.40;0.30;;;;;;;19.40;100.00;100470.53;5072283;28;20048;-56
2021/06/15 10:56:12;;;;;;;1.08;0.20;;;;;;;19.40;100.00;100464.13;5072162;28;20044;-57
2021/06/15 10:59:15;;;;;;;4.32;0.88;;;;;;;19.44;100.00;100456.13;5072265;28;20500;-56
2021/06/15 11:02:18;;;;;;;6.07;0.30;;;;;;;19.27;100.00;100459.03;5072344;28;20040;-55
2021/06/15 11:05:46;;;;;;;3.88;0.50;;;;;;;19.25;100.00;100455.19;5072247;28;20051;-56
2021/06/15 11:09:17;;;;;;;1.27;0.32;;;;;;;19.35;100.00;100445.91;5072000;28;20043;-56
2021/06/15 11:12:22;;;;;;;2.33;0.50;;;;;;;19.33;100.00;100442.03;5072065;28;20504;-56
2021/06/15 11:15:25;;;;;;;0.95;0.28;;;;;;;19.37;100.00;100434.84;5072025;28;20048;-57
2021/06/15 11:18:28;;;;;;;8.05;0.75;;;;;;;19.60;100.00;100430.59;5071784;28;20047;-57
2021/06/15 11:21:31;;;;;;;1.55;0.40;;;;;;;19.77;100.00;100429.72;5072177;28;20052;-57
2021/06/15 11:24:45;;;;;;;6.72;0.28;;;;;;;19.82;100.00;100409.88;5071931;28;20067;-57
2021/06/15 11:27:49;;;;;;;1.85;0.40;;;;;;;20.01;100.00;100418.47;5070959;28;20052;-57
2021/06/15 11:31:19;;;;;;;2.40;0.40;;;;;;;20.00;100.00;100420.53;5072103;28;20052;-56
2021/06/15 11:34:22;;;;;;;0.88;0.60;;;;;;;20.26;100.00;100429.31;5071738;28;20095;-56
2021/06/15 11:37:28;;;;;;;3.08;0.25;;;;;;;20.46;100.00;100425.25;5071022;28;20052;-56
2021/06/15 11:40:38;;;;;;;1.38;0.20;;;;;;;20.66;100.00;100415.53;5071899;28;20524;-57
2021/06/15 11:43:54;;;;;;;10.95;0.22;;;;;;;20.62;99.54;100412.97;5071464;28;20063;-55
2021/06/15 11:47:23;;;;;;;2.78;0.10;;;;;;;20.39;100.00;100411.69;5071609;28;20047;-56
2021/06/15 11:50:30;;;;;;;2.53;0.40;;;;;;;20.51;100.00;100404.59;5071063;28;20059;-56
2021/06/15 11:53:40;;;;;;;0.43;0.30;;;;;;;20.44;100.00;100399.56;5071450;28;20055;-56
2021/06/15 11:56:48;;;;;;;2.88;0.28;;;;;;;20.30;97.32;100392.25;5071400;28;20404;-56
2021/06/15 11:59:51;;;;;;;3.80;0.40;;;;;;;20.21;99.81;100403.91;5071387;28;20056;-57
2021/06/15 12:03:09;;;;;;;5.55;0.70;;;;;;;20.29;100.00;100394.28;5071168;28;20086;-56
2021/06/15 12:06:18;;;;;;;1.38;0.20;;;;;;;20.45;100.00;100389.75;5071472;28;20059;-57
2021/06/15 12:09:22;;;;;;;1.10;0.30;;;;;;;20.50;100.00;100379.69;5071635;28;20055;-57
2021/06/15 12:12:25;;;;;;;3.50;0.30;;;;;;;20.68;98.86;100381.78;5071446;28;20048;-57
2021/06/15 12:15:35;;;;;;;6.80;0.40;;;;;;;20.71;100.00;100367.31;5071696;28;20043;-57
2021/06/15 12:18:49;;;;;;;0.40;0.20;;;;;;;20.79;100.00;100376.75;5071181;28;20595;-57
2021/06/15 12:21:53;;;;;;;6.40;0.55;;;;;;;20.76;100.00;100375.00;5072067;28;20372;-56
2021/06/15 12:24:56;;;;;;;0.55;0.10;;;;;;;20.77;100.00;100362.34;5074994;28;20420;-56
2021/06/15 12:28:16;;;;;;;3.70;0.75;;;;;;;20.64;99.78;100355.84;5074790;28;20051;-57
2021/06/15 12:31:28;;;;;;;1.05;0.38;;;;;;;20.95;100.00;100361.63;5074773;28;20067;-56
2021/06/15 12:34:31;;;;;;;4.93;0.50;;;;;;;20.75;96.96;100345.16;5074921;28;20404;-57
2021/06/15 12:37:42;;;;;;;6.63;0.65;;;;;;;20.89;100.00;100355.25;5074410;28;20531;-56
2021/06/15 12:40:45;;;;;;;1.13;0.20;;;;;;;20.99;99.89;100342.25;5074525;28;20397;-58
2021/06/15 12:43:50;;;;;;;8.18;0.73;;;;;;;20.90;96.94;100336.97;5074644;28;20397;-58
2021/06/15 12:47:03;;;;;;;1.30;0.30;;;;;;;21.02;100.00;100329.84;5074709;28;20044;-57
2021/06/15 12:50:19;;;;;;;1.85;0.50;;;;;;;21.37;100.00;100328.06;5074690;28;20413;-58
2021/06/15 12:53:27;;;;;;;2.50;0.30;;;;;;;21.35;99.59;100333.53;5074442;28;20397;-57
2021/06/15 12:56:33;;;;;;;5.40;0.30;;;;;;;21.23;100.00;100320.81;5074089;28;20060;-58
2021/06/15 12:59:42;;;;;;;12.82;1.33;;;;;;;21.34;99.26;100314.97;5074141;28;20055;-57
2021/06/15 13:02:45;;;;;;;8.02;0.50;;;;;;;21.34;94.50;100306.47;5073224;28;20043;-57
2021/06/15 13:05:49;;;;;;;4.63;0.60;;;;;;;21.49;95.50;100310.34;5074242;28;20512;-57
2021/06/15 13:08:53;;;;;;;0.70;0.15;;;;;;;21.77;96.91;100304.19;5073005;28;20170;-55
2021/06/15 13:12:01;;;;;;;12.50;0.95;;;;;;;21.94;94.34;100287.66;5073908;28;20051;-57
2021/06/15 13:15:06;;;;;;;7.43;0.30;;;;;;;22.07;89.55;100287.69;5074335;28;20381;-58
2021/06/15 13:18:10;;;;;;;2.25;0.50;;;;;;;22.04;85.19;100285.94;5073819;28;20401;-57
2021/06/15 13:21:14;;;;;;;9.63;0.40;;;;;;;21.97;89.33;100292.25;5073769;28;20413;-57
2021/06/15 13:24:18;;;;;;;4.22;0.65;;;;;;;21.70;87.75;100290.69;5073687;28;20055;-58
2021/06/15 13:27:36;;;;;;;0.85;0.40;;;;;;;21.65;85.12;100292.31;5073588;28;20512;-58
2021/06/15 13:30:41;;;;;;;2.85;0.43;;;;;;;21.55;84.76;100284.75;5072619;28;20409;-58
2021/06/15 13:33:44;;;;;;;1.42;0.47;;;;;;;21.66;83.11;100287.38;5073055;28;20496;-57
2021/06/15 13:36:48;;;;;;;7.25;0.52;;;;;;;21.68;78.92;100276.25;5073540;28;20054;-57
2021/06/15 13:39:52;;;;;;;2.03;0.63;;;;;;;21.68;80.78;100264.91;5073687;28;20071;-58
2021/06/15 13:42:57;;;;;;;2.92;0.40;;;;;;;21.93;83.59;100257.78;5073157;28;20067;-58
2021/06/15 13:46:16;;;;;;;4.55;1.23;;;;;;;22.10;84.23;100258.22;5073334;28;20111;-58
2021/06/15 13:49:19;;;;;;;1.67;0.40;;;;;;;22.19;81.96;100254.97;5073036;28;20047;-56
2021/06/15 13:52:22;;;;;;;8.55;0.63;;;;;;;22.07;82.02;100245.13;5072946;28;20067;-57
2021/06/15 13:55:26;;;;;;;2.30;0.35;;;;;;;22.04;85.26;100239.78;5072918;28;20047;-57
2021/06/15 13:58:30;;;;;;;7.30;0.77;;;;;;;22.07;81.85;100239.44;5072510;28;20052;-58
2021/06/15 14:01:35;;;;;;;0.45;0.00;;;;;;;22.25;83.31;100249.16;5073045;28;20051;-58
2021/06/15 14:04:39;;;;;;;0.90;0.30;;;;;;;22.28;80.45;100231.81;5072622;28;20040;-57
2021/06/15 14:07:42;;;;;;;1.23;0.38;;;;;;;22.18;82.66;100233.56;5072640;28;20055;-58
2021/06/15 14:10:46;;;;;;;7.90;0.75;;;;;;;22.24;79.75;100228.53;5072553;28;20047;-58
2021/06/15 14:13:50;;;;;;;1.50;0.08;;;;;;;22.28;78.09;100214.78;5071848;28;20051;-47
2021/06/15 14:16:54;;;;;;;2.47;0.82;;;;;;;22.41;80.94;100217.59;5072580;28;20047;-47
2021/06/15 14:19:58;;;;;;;1.17;0.15;;;;;;;22.45;75.50;100215.19;5072485;28;20051;-47
2021/06/15 14:23:03;;;;;;;11.20;1.05;;;;;;;22.65;78.17;100207.28;5072304;28;20051;-47
2021/06/15 14:26:07;;;;;;;2.05;0.52;;;;;;;22.75;78.23;100196.97;5072418;28;20047;-47
2021/06/15 14:29:10;;;;;;;2.70;0.82;;;;;;;22.87;75.70;100184.81;5072515;28;20047;-48